Time;durP1;ratioP1;P1;durP2;ratioP2;P2;SDS_P1;SDS_P2;PMS_P1;PMS_P2;Temp;Humidity;BMP_temperature;BMP_pressure;BME280_temperature;BME280_humidity;BME280_pressure;Samples;Min_cycle;Max_cycle;Signal;HPM_P1;HPM_P2
2023/05/26 00:02:05;;;;;;;;;8.00;6.00;;;;;22.56;42.61;101541.95;110179;1251;22993;-39
2023/05/26 00:04:33;;;;;;;;;6.00;6.00;;;;;22.56;42.40;101542.48;110185;1265;19593;-39
2023/05/26 00:07:00;;;;;;;;;5.00;5.00;;;;;22.54;42.36;101545.80;110227;1265;19589;-39
2023/05/26 00:09:28;;;;;;;;;4.50;4.50;;;;;22.55;42.34;101542.29;110196;1251;20356;-39
2023/05/26 00:11:55;;;;;;;;;7.00;6.00;;;;;22.54;42.45;101547.45;110148;1265;23542;-39
2023/05/26 00:14:23;;;;;;;;;6.00;5.00;;;;;22.55;42.26;101547.21;110200;1265;19925;-39
2023/05/26 00:16:50;;;;;;;;;6.50;6.50;;;;;22.54;42.18;101547.52;110197;1265;20151;-39
2023/05/26 00:19:19;;;;;;;;;9.00;8.00;;;;;22.53;42.18;101545.20;110205;1257;23215;-39
2023/05/26 00:21:47;;;;;;;;;8.00;6.00;;;;;22.53;42.06;101547.34;110211;1265;23526;-39
2023/05/26 00:24:14;;;;;;;;;6.50;5.50;;;;;22.52;42.10;101545.66;110213;1265;20108;-38
2023/05/26 00:26:42;;;;;;;;;7.00;5.00;;;;;22.52;42.02;101546.20;110188;1251;25565;-39
2023/05/26 00:29:09;;;;;;;;;6.00;6.00;;;;;22.52;41.93;101544.42;110221;1251;20763;-37
2023/05/26 00:31:36;;;;;;;;;7.00;7.00;;;;;22.51;42.23;101547.02;110183;1265;20509;-38
2023/05/26 00:34:04;;;;;;;;;4.00;4.00;;;;;22.51;42.26;101543.07;110178;1257;24730;-39
2023/05/26 00:36:31;;;;;;;;;6.67;6.33;;;;;22.51;42.14;101541.80;110207;1265;23708;-38
2023/05/26 00:38:59;;;;;;;;;7.00;7.00;;;;;22.51;42.07;101543.77;110174;1250;21657;-39
2023/05/26 00:41:26;;;;;;;;;11.00;8.00;;;;;22.49;41.93;101542.86;110190;1251;19643;-39
2023/05/26 00:43:54;;;;;;;;;7.00;6.00;;;;;22.50;42.09;101535.39;110011;1266;24135;-40
2023/05/26 00:46:21;;;;;;;;;8.00;7.00;;;;;22.49;42.22;101536.54;110012;1265;203328;-39
2023/05/26 00:48:49;;;;;;;;;8.00;7.00;;;;;22.48;42.02;101534.98;110183;1265;19631;-39
2023/05/26 00:51:16;;;;;;;;;8.00;8.00;;;;;22.49;42.00;101538.73;110161;1265;20675;-39
2023/05/26 00:53:44;;;;;;;;;8.50;8.00;;;;;22.48;41.93;101537.54;110168;1250;21388;-39
2023/05/26 00:56:12;;;;;;;;;7.00;5.00;;;;;22.48;41.89;101539.38;110213;1265;19292;-39
2023/05/26 00:58:39;;;;;;;;;6.00;6.00;;;;;22.48;41.99;101535.89;110188;1265;19338;-39
2023/05/26 01:01:07;;;;;;;;;5.00;5.00;;;;;22.47;41.93;101537.42;110190;1251;23618;-39
2023/05/26 01:03:36;;;;;;;;;7.00;6.00;;;;;22.47;42.00;101542.60;110183;1265;22630;-42
2023/05/26 01:06:04;;;;;;;;;5.00;5.00;;;;;22.46;41.91;101539.73;110205;1265;24174;-39
2023/05/26 01:08:31;;;;;;;;;7.50;7.00;;;;;22.47;41.89;101541.34;110165;1260;21460;-38
2023/05/26 01:10:59;;;;;;;;;8.00;6.33;;;;;22.46;41.94;101537.79;110162;1251;23542;-38
2023/05/26 01:13:26;;;;;;;;;5.00;5.00;;;;;22.46;41.91;101540.32;110210;1265;19348;-39
2023/05/26 01:15:54;;;;;;;;;9.67;7.67;;;;;22.45;41.79;101541.38;110214;1266;21503;-39
2023/05/26 01:18:21;;;;;;;;;4.50;4.50;;;;;22.44;41.74;101539.30;110189;1251;19710;-39
2023/05/26 01:20:49;;;;;;;;;8.00;8.00;;;;;22.44;41.90;101542.42;110198;1251;19229;-39
2023/05/26 01:23:16;;;;;;;;;6.00;6.00;;;;;22.43;41.78;101544.33;110220;1251;21878;-39
2023/05/26 01:25:44;;;;;;;;;7.00;5.00;;;;;22.43;41.83;101541.46;110187;1265;19234;-39
2023/05/26 01:28:13;;;;;;;;;11.00;8.00;;;;;22.42;41.91;101541.35;110244;1249;20902;-39
2023/05/26 01:30:40;;;;;;;;;5.00;5.00;;;;;22.42;41.86;101543.13;110194;1265;20158;-39
2023/05/26 01:33:08;;;;;;;;;8.00;7.00;;;;;22.42;41.94;101541.38;110170;1251;20044;-39
2023/05/26 01:35:35;;;;;;;;;9.00;8.00;;;;;22.41;41.77;101540.50;110222;1260;19339;-40
2023/05/26 01:38:02;;;;;;;;;5.00;5.00;;;;;22.40;41.78;101536.21;110191;1265;20153;-38
2023/05/26 01:40:30;;;;;;;;;7.00;5.00;;;;;22.39;41.81;101533.55;110164;1265;22362;-39
2023/05/26 01:42:58;;;;;;;;;8.00;7.50;;;;;22.39;41.75;101533.92;110214;1265;19307;-39
2023/05/26 01:45:25;;;;;;;;;8.00;8.00;;;;;22.38;41.91;101532.05;110201;1265;20153;-38
2023/05/26 01:47:52;;;;;;;;;8.00;7.00;;;;;22.37;41.83;101530.52;110206;1251;19212;-39
2023/05/26 01:50:20;;;;;;;;;7.00;5.00;;;;;22.39;41.79;101534.92;110143;1265;20911;-38
2023/05/26 01:52:48;;;;;;;;;7.50;7.00;;;;;22.38;41.73;101532.23;110179;1251;21836;-38
2023/05/26 01:55:15;;;;;;;;;7.00;7.00;;;;;22.38;41.85;101530.63;110175;1265;19181;-39
2023/05/26 01:57:43;;;;;;;;;8.00;6.33;;;;;22.37;41.88;101531.27;110206;1265;20621;-39
2023/05/26 02:00:11;;;;;;;;;7.00;7.00;;;;;22.36;41.76;101529.57;110189;1250;21790;-39
2023/05/26 02:02:39;;;;;;;;;5.00;5.00;;;;;22.36;41.75;101534.34;110202;1257;23874;-39
2023/05/26 02:05:07;;;;;;;;;5.00;5.00;;;;;22.35;41.82;101532.98;110202;1257;21808;-40
2023/05/26 02:07:35;;;;;;;;;7.00;7.00;;;;;22.35;41.90;101533.86;110199;1257;21399;-39
2023/05/26 02:10:03;;;;;;;;;11.00;8.00;;;;;22.35;41.87;101533.00;110230;1250;19273;-37
2023/05/26 02:12:30;;;;;;;;;8.00;7.00;;;;;22.35;41.91;101534.76;110207;1251;19400;-39
2023/05/26 02:14:58;;;;;;;;;8.00;7.00;;;;;22.34;41.79;101537.13;110218;1257;24778;-38
2023/05/26 02:17:25;;;;;;;;;7.00;7.00;;;;;22.34;41.78;101536.14;110202;1251;19553;-38
2023/05/26 02:19:53;;;;;;;;;5.00;5.00;;;;;22.33;41.83;101539.96;110210;1265;21102;-39
2023/05/26 02:22:20;;;;;;;;;7.00;7.00;;;;;22.33;41.71;101539.42;110211;1250;21624;-39
2023/05/26 02:24:48;;;;;;;;;7.00;7.00;;;;;22.32;41.79;101542.59;110214;1265;23180;-38
2023/05/26 02:27:16;;;;;;;;;8.50;7.50;;;;;22.32;41.85;101540.95;110169;1249;22203;-38
2023/05/26 02:29:43;;;;;;;;;9.00;7.00;;;;;22.31;41.61;101538.20;110190;1257;20136;-39
2023/05/26 02:32:11;;;;;;;;;5.00;5.00;;;;;22.30;41.61;101539.35;110129;1251;19704;-38
2023/05/26 02:34:38;;;;;;;;;11.50;9.00;;;;;22.30;41.59;101539.04;110130;1265;20849;-38
2023/05/26 02:37:06;;;;;;;;;7.50;7.00;;;;;22.29;41.66;101541.86;110119;1251;21830;-38
2023/05/26 02:39:33;;;;;;;;;8.00;8.00;;;;;22.28;41.65;101540.36;110135;1265;21986;-39
2023/05/26 02:42:01;;;;;;;;;8.00;7.00;;;;;22.28;41.70;101538.27;110165;1257;21093;-38
2023/05/26 02:44:28;;;;;;;;;9.00;8.00;;;;;22.27;41.69;101543.09;110179;1251;23416;-38
2023/05/26 02:46:55;;;;;;;;;9.00;9.00;;;;;22.27;41.62;101542.11;110158;1250;19754;-38
2023/05/26 02:49:23;;;;;;;;;;;;;;;22.25;41.68;101541.21;110146;1265;23042;-38
2023/05/26 02:51:51;;;;;;;;;7.50;7.50;;;;;22.24;41.72;101540.17;110118;1251;20149;-38
2023/05/26 02:54:18;;;;;;;;;8.00;7.00;;;;;22.26;41.55;101545.21;110168;1265;19193;-40
2023/05/26 02:56:45;;;;;;;;;7.00;7.00;;;;;22.27;41.50;101545.89;110168;1250;22167;-38
2023/05/26 02:59:13;;;;;;;;;12.50;8.50;;;;;22.26;41.66;101546.23;110158;1265;23711;-38
2023/05/26 03:01:40;;;;;;;;;9.00;8.50;;;;;22.25;41.50;101545.52;110209;1265;18994;-38
2023/05/26 03:04:08;;;;;;;;;8.00;8.00;;;;;22.24;41.55;101545.17;110177;1265;24598;-36
2023/05/26 03:06:35;;;;;;;;;5.00;5.00;;;;;22.23;41.59;101542.88;110192;1250;20283;-38
2023/05/26 03:09:03;;;;;;;;;7.50;7.50;;;;;22.23;41.50;101543.02;110183;1266;19179;-38
2023/05/26 03:11:30;;;;;;;;;10.00;9.00;;;;;22.22;41.53;101540.79;110192;1265;20710;-39
2023/05/26 03:13:58;;;;;;;;;9.00;8.00;;;;;22.23;41.48;101537.58;110166;1265;20137;-39
2023/05/26 03:16:25;;;;;;;;;11.00;8.00;;;;;22.22;41.53;101535.84;110187;1265;20035;-38
2023/05/26 03:18:52;;;;;;;;;9.00;9.00;;;;;22.22;41.44;101527.30;110204;1266;20719;-39
2023/05/26 03:21:20;;;;;;;;;12.00;11.00;;;;;22.21;41.42;101524.27;110227;1265;20014;-38
2023/05/26 03:23:47;;;;;;;;;9.00;8.00;;;;;22.21;41.49;101519.08;110162;1251;23173;-39
2023/05/26 03:26:15;;;;;;;;;9.00;8.00;;;;;22.20;41.55;101522.23;110204;1265;19520;-39
2023/05/26 03:28:42;;;;;;;;;8.50;8.00;;;;;22.21;41.59;101524.71;110163;1265;21634;-39
2023/05/26 03:31:09;;;;;;;;;11.00;9.67;;;;;22.21;41.43;101525.05;110112;1265;19750;-41
2023/05/26 03:33:37;;;;;;;;;8.00;8.00;;;;;22.20;41.58;101521.41;110190;1251;20969;-38
2023/05/26 03:36:05;;;;;;;;;9.00;8.50;;;;;22.20;41.53;101522.23;110180;1265;20119;-39
2023/05/26 03:38:32;;;;;;;;;11.00;9.00;;;;;22.20;41.58;101524.23;110252;1257;24718;-38
2023/05/26 03:41:00;;;;;;;;;9.00;8.00;;;;;22.20;41.60;101524.61;110264;1265;19398;-39
2023/05/26 03:43:27;;;;;;;;;8.00;7.00;;;;;22.20;41.66;101526.70;110156;1265;20191;-39
2023/05/26 03:45:55;;;;;;;;;7.50;7.50;;;;;22.19;41.58;101525.09;110239;1265;19113;-39
2023/05/26 03:48:22;;;;;;;;;12.00;11.00;;;;;22.19;41.63;101526.60;110199;1265;19558;-40
2023/05/26 03:50:50;;;;;;;;;10.00;9.00;;;;;22.19;41.65;101527.29;110165;1265;23600;-39
2023/05/26 03:53:17;;;;;;;;;9.00;8.00;;;;;22.18;41.68;101528.65;110212;1250;23869;-39
2023/05/26 03:55:45;;;;;;;;;11.50;9.00;;;;;22.18;41.64;101531.23;110186;1265;21049;-39
2023/05/26 03:58:12;;;;;;;;;9.00;8.00;;;;;22.17;41.62;101530.24;110212;1265;20137;-39
2023/05/26 04:00:40;;;;;;;;;15.00;14.00;;;;;22.17;41.67;101536.48;110156;1251;20053;-39
2023/05/26 04:03:07;;;;;;;;;14.00;12.00;;;;;22.17;41.71;101533.76;110180;1265;19470;-39
2023/05/26 04:05:35;;;;;;;;;14.00;12.00;;;;;22.17;41.74;101535.77;110203;1251;20097;-39
2023/05/26 04:08:02;;;;;;;;;12.00;12.00;;;;;22.16;41.82;101539.05;110206;1265;23851;-39
2023/05/26 04:10:29;;;;;;;;;11.00;9.00;;;;;22.17;41.65;101538.83;110199;1251;20974;-39
2023/05/26 04:12:57;;;;;;;;;8.50;8.00;;;;;22.17;41.79;101534.84;110173;1251;21931;-39
2023/05/26 04:15:24;;;;;;;;;11.33;10.33;;;;;22.14;41.55;101531.09;110196;1251;20003;-40
2023/05/26 04:17:52;;;;;;;;;11.00;10.00;;;;;22.08;41.46;101533.48;110161;1250;23170;-39
2023/05/26 04:20:19;;;;;;;;;12.00;8.00;;;;;21.87;41.69;101535.78;110224;1249;21608;-40
2023/05/26 04:22:47;;;;;;;;;11.00;10.00;;;;;21.81;41.79;101537.77;110167;1265;22657;-38
2023/05/26 04:25:14;;;;;;;;;14.00;12.00;;;;;21.68;41.83;101536.07;110192;1265;19456;-40
2023/05/26 04:27:42;;;;;;;;;13.00;11.50;;;;;21.68;41.94;101537.58;110156;1265;20269;-38
2023/05/26 04:30:10;;;;;;;;;14.33;10.00;;;;;21.72;42.01;101538.36;110194;1265;19190;-38
2023/05/26 04:32:37;;;;;;;;;8.00;6.00;;;;;21.79;41.91;101535.70;110199;1250;23335;-38
2023/05/26 04:35:05;;;;;;;;;8.50;8.00;;;;;21.92;42.02;101535.83;110165;1265;20014;-38
2023/05/26 04:37:33;;;;;;;;;8.00;8.00;;;;;22.07;42.15;101541.69;110213;1265;22981;-38
2023/05/26 04:40:05;;;;;;;;;9.50;8.00;;;;;22.17;42.45;101540.04;110254;1251;22386;-39
2023/05/26 04:42:34;;;;;;;;;8.00;8.00;;;;;22.23;42.64;101538.48;110177;1251;22980;-38
2023/05/26 04:45:02;;;;;;;;;10.50;9.50;;;;;22.29;42.88;101537.05;110238;1249;19691;-38
2023/05/26 04:47:32;;;;;;;;;8.00;8.00;;;;;22.37;42.87;101536.52;110186;1265;23664;-38
2023/05/26 04:49:59;;;;;;;;;9.00;8.00;;;;;22.43;43.32;101533.43;110196;1265;22952;-37
2023/05/26 04:52:27;;;;;;;;;52.00;38.50;;;;;22.48;43.89;101538.63;110211;1265;19734;-37
2023/05/26 04:54:54;;;;;;;;;101.00;73.00;;;;;22.53;44.51;101545.56;110182;1265;19684;-37
2023/05/26 04:57:22;;;;;;;;;147.00;105.00;;;;;22.56;45.05;101543.79;110164;1265;20111;-38
2023/05/26 04:59:49;;;;;;;;;133.00;98.50;;;;;22.59;45.46;101546.48;110194;1251;20342;-37
2023/05/26 05:02:17;;;;;;;;;114.00;77.00;;;;;22.62;44.90;101548.58;110178;1259;20954;-37
2023/05/26 05:04:45;;;;;;;;;154.50;110.50;;;;;22.63;44.50;101548.56;110149;1265;21534;-37
2023/05/26 05:07:12;;;;;;;;;89.00;64.00;;;;;22.66;44.87;101549.94;110189;1250;23088;-39
2023/05/26 05:09:40;;;;;;;;;63.50;44.00;;;;;22.52;44.35;101548.91;110237;1265;20976;-39
2023/05/26 05:12:07;;;;;;;;;47.00;39.00;;;;;22.18;43.77;101551.59;110183;1265;21596;-38
2023/05/26 05:14:35;;;;;;;;;29.00;26.00;;;;;22.02;43.47;101553.45;110138;1260;20355;-39
2023/05/26 05:17:02;;;;;;;;;24.00;21.00;;;;;21.94;43.05;101552.35;110173;1265;22954;-38
2023/05/26 05:19:29;;;;;;;;;18.00;15.50;;;;;21.81;42.61;101554.69;110157;1265;20110;-39
2023/05/26 05:21:57;;;;;;;;;14.00;12.00;;;;;21.72;42.52;101553.51;110177;1257;19230;-39
2023/05/26 05:24:24;;;;;;;;;12.00;11.00;;;;;21.76;42.34;101555.77;110233;1265;21149;-40
2023/05/26 05:26:52;;;;;;;;;12.00;11.50;;;;;21.70;42.10;101554.58;110208;1265;21453;-39
2023/05/26 05:29:19;;;;;;;;;9.67;8.33;;;;;21.58;42.15;101552.77;110228;1265;19910;-39
2023/05/26 05:31:47;;;;;;;;;11.00;8.00;;;;;21.52;42.14;101556.51;110224;1265;23152;-39
2023/05/26 05:34:14;;;;;;;;;10.00;10.00;;;;;21.42;42.32;101557.73;110147;1265;23605;-38
2023/05/26 05:36:42;;;;;;;;;11.00;8.00;;;;;21.42;42.46;101553.57;110200;1265;20205;-38
2023/05/26 05:39:10;;;;;;;;;10.00;8.00;;;;;21.27;42.33;101558.70;110149;1265;19629;-38
2023/05/26 05:41:37;;;;;;;;;10.00;8.67;;;;;21.20;42.33;101556.61;110159;1265;23532;-39
2023/05/26 05:44:05;;;;;;;;;10.00;8.00;;;;;21.10;42.54;101559.20;110167;1251;20061;-38
2023/05/26 05:46:32;;;;;;;;;7.50;7.00;;;;;21.14;42.51;101556.43;110175;1265;19388;-38
2023/05/26 05:48:59;;;;;;;;;7.50;7.50;;;;;21.16;42.33;101559.14;110174;1251;21829;-39
2023/05/26 05:51:27;;;;;;;;;7.33;5.67;;;;;21.18;42.48;101561.19;110172;1265;19178;-39
2023/05/26 05:53:55;;;;;;;;;9.50;9.00;;;;;21.21;42.36;101564.11;110201;1250;23087;-39
2023/05/26 05:56:22;;;;;;;;;11.00;10.00;;;;;21.18;42.42;101561.48;110157;1250;23771;-39
2023/05/26 05:58:50;;;;;;;;;10.00;10.00;;;;;21.14;42.38;101560.79;110183;1265;19184;-39
2023/05/26 06:01:17;;;;;;;;;7.67;7.00;;;;;21.11;42.32;101555.49;110178;1265;22968;-40
2023/05/26 06:03:45;;;;;;;;;7.33;7.33;;;;;21.15;42.37;101560.35;110146;1257;20317;-39
2023/05/26 06:06:12;;;;;;;;;10.00;8.00;;;;;21.07;42.27;101559.38;110173;1265;19229;-39
2023/05/26 06:08:40;;;;;;;;;10.00;8.00;;;;;21.07;42.53;101564.80;110170;1251;20840;-39
2023/05/26 06:11:07;;;;;;;;;7.00;7.00;;;;;21.05;42.31;101566.05;110227;1251;22962;-39
2023/05/26 06:13:35;;;;;;;;;11.00;8.00;;;;;20.98;42.30;101563.37;110194;1265;19112;-39
2023/05/26 06:16:02;;;;;;;;;10.00;8.00;;;;;20.94;42.63;101564.02;110179;1265;20607;-38
2023/05/26 06:18:29;;;;;;;;;10.00;8.00;;;;;20.96;42.69;101566.27;110182;1251;22029;-40
2023/05/26 06:20:57;;;;;;;;;10.00;8.00;;;;;20.96;42.63;101564.13;110148;1251;21320;-38
2023/05/26 06:23:25;;;;;;;;;8.00;8.00;;;;;21.00;42.51;101564.44;110177;1251;20996;-38
2023/05/26 06:25:52;;;;;;;;;8.00;8.00;;;;;20.92;42.64;101560.52;110175;1251;23548;-39
2023/05/26 06:28:20;;;;;;;;;8.00;7.00;;;;;20.92;42.59;101563.80;110149;1265;19583;-39
2023/05/26 06:30:47;;;;;;;;;8.00;7.67;;;;;20.98;42.40;101564.23;110190;1265;19365;-39
2023/05/26 06:33:15;;;;;;;;;7.00;7.00;;;;;21.00;42.20;101561.75;110176;1257;20867;-38
2023/05/26 06:35:42;;;;;;;;;10.00;10.00;;;;;21.04;41.86;101568.71;110187;1251;19617;-39
2023/05/26 06:38:09;;;;;;;;;7.00;7.00;;;;;21.12;41.60;101569.54;110186;1265;21067;-39
2023/05/26 06:40:37;;;;;;;;;7.00;6.00;;;;;21.18;41.42;101569.14;110218;1265;21729;-39
2023/05/26 06:43:04;;;;;;;;;8.00;8.00;;;;;21.17;41.46;101571.01;110170;1265;19206;-39
2023/05/26 06:45:32;;;;;;;;;8.00;7.00;;;;;21.17;41.42;101566.71;110204;1265;20922;-38
2023/05/26 06:47:59;;;;;;;;;7.00;7.00;;;;;21.20;41.37;101570.01;110182;1265;21341;-38
2023/05/26 06:50:27;;;;;;;;;7.00;7.00;;;;;21.26;41.15;101569.38;110196;1265;20315;-40
2023/05/26 06:52:54;;;;;;;;;8.00;7.50;;;;;21.32;41.09;101568.04;110182;1251;21878;-37
2023/05/26 06:55:22;;;;;;;;;7.00;7.00;;;;;21.29;41.32;101565.20;110215;1251;21526;-43
2023/05/26 06:57:49;;;;;;;;;7.00;7.00;;;;;21.23;41.49;101565.30;110186;1265;19203;-38
2023/05/26 07:00:17;;;;;;;;;7.00;7.00;;;;;21.30;41.34;101569.35;110169;1265;19810;-40
2023/05/26 07:02:44;;;;;;;;;7.00;7.00;;;;;21.32;41.12;101568.92;110213;1249;23994;-38
2023/05/26 07:05:11;;;;;;;;;6.00;5.00;;;;;21.35;41.05;101569.75;110175;1265;23035;-38
2023/05/26 07:07:39;;;;;;;;;4.33;4.33;;;;;21.45;40.55;101571.23;110211;1265;19351;-38
2023/05/26 07:10:06;;;;;;;;;10.00;8.00;;;;;21.42;40.46;101571.89;110192;1251;21698;-39
2023/05/26 07:12:34;;;;;;;;;6.33;6.33;;;;;21.37;40.38;101576.42;110209;1265;23119;-38
2023/05/26 07:15:01;;;;;;;;;7.00;7.00;;;;;21.32;40.62;101575.45;110187;1250;22161;-38
2023/05/26 07:17:29;;;;;;;;;8.00;7.00;;;;;21.40;40.92;101575.82;110182;1265;21936;-38
2023/05/26 07:19:56;;;;;;;;;7.00;7.00;;;;;21.46;41.58;101578.41;110187;1265;19252;-38
2023/05/26 07:22:23;;;;;;;;;5.00;5.00;;;;;21.52;41.80;101579.23;110176;1265;23741;-38
2023/05/26 07:24:51;;;;;;;;;8.00;7.00;;;;;21.53;42.04;101577.83;110172;1251;21921;-39
2023/05/26 07:27:18;;;;;;;;;7.00;5.67;;;;;21.54;42.01;101576.63;110183;1251;19868;-38
2023/05/26 07:29:46;;;;;;;;;7.67;7.00;;;;;21.59;42.04;101578.80;110250;1250;20738;-39
2023/05/26 07:32:13;;;;;;;;;10.00;8.00;;;;;21.60;42.02;101579.80;110281;1251;21486;-38
2023/05/26 07:34:41;;;;;;;;;7.00;7.00;;;;;21.61;42.38;101588.26;110293;1251;19674;-38
2023/05/26 07:37:09;;;;;;;;;8.00;7.00;;;;;21.66;42.28;101583.61;110287;1260;20720;-39
2023/05/26 07:39:36;;;;;;;;;7.00;7.00;;;;;21.70;42.24;101580.54;110130;1265;20161;-39
2023/05/26 07:42:04;;;;;;;;;9.00;8.00;;;;;21.69;42.26;101586.87;110141;1251;19633;-39
2023/05/26 07:44:31;;;;;;;;;7.00;7.00;;;;;21.59;42.08;101586.41;110237;1265;19342;-39
2023/05/26 07:46:58;;;;;;;;;7.00;5.00;;;;;21.66;42.09;101590.88;110195;1265;21529;-38
2023/05/26 07:49:26;;;;;;;;;9.50;8.00;;;;;21.64;41.69;101592.33;110165;1265;19583;-38
2023/05/26 07:51:53;;;;;;;;;7.50;7.00;;;;;21.68;41.26;101596.63;110175;1265;19377;-39
2023/05/26 07:54:21;;;;;;;;;6.33;5.00;;;;;21.74;41.15;101600.54;110178;1265;20167;-38
2023/05/26 07:56:48;;;;;;;;;7.00;7.00;;;;;21.71;40.93;101601.96;110205;1251;19843;-38
2023/05/26 07:59:16;;;;;;;;;10.00;7.00;;;;;21.74;40.58;101605.86;110255;1251;20742;-38
2023/05/26 08:01:43;;;;;;;;;7.00;7.00;;;;;21.80;40.62;101602.21;110211;1265;21583;-38
2023/05/26 08:04:11;;;;;;;;;7.00;5.00;;;;;21.77;40.36;101606.90;110154;1265;21465;-38
2023/05/26 08:06:38;;;;;;;;;7.00;7.00;;;;;21.78;40.04;101608.30;110121;1265;20693;-38
2023/05/26 08:09:06;;;;;;;;;7.00;7.00;;;;;21.82;39.85;101610.40;110203;1265;21447;-38
2023/05/26 08:11:33;;;;;;;;;12.00;7.50;;;;;21.87;39.93;101606.20;110234;1265;20974;-39
2023/05/26 08:14:01;;;;;;;;;6.00;6.00;;;;;21.85;40.04;101604.62;110182;1251;20784;-39
2023/05/26 08:16:28;;;;;;;;;13.00;8.00;;;;;21.71;40.06;101604.65;110177;1251;21422;-40
2023/05/26 08:18:55;;;;;;;;;7.00;7.00;;;;;21.76;40.20;101606.32;110196;1251;19552;-39
2023/05/26 08:21:23;;;;;;;;;5.00;5.00;;;;;21.89;40.27;101600.92;110196;1265;23689;-38
2023/05/26 08:23:50;;;;;;;;;7.00;7.00;;;;;21.98;40.19;101599.63;110226;1265;21972;-38
2023/05/26 08:26:18;;;;;;;;;7.50;5.00;;;;;21.87;39.96;101596.91;110233;1266;19272;-38
2023/05/26 08:28:45;;;;;;;;;7.00;7.00;;;;;21.84;39.71;101595.12;110228;1250;19403;-39
2023/05/26 08:31:14;;;;;;;;;7.00;5.00;;;;;21.85;39.56;101594.25;110241;1257;22949;-38
2023/05/26 08:33:41;;;;;;;;;6.00;6.00;;;;;21.88;39.40;101589.92;110246;1265;19242;-39
2023/05/26 08:36:09;;;;;;;;;7.00;7.00;;;;;21.91;39.33;101595.43;110236;1265;19828;-38
2023/05/26 08:38:36;;;;;;;;;7.00;5.00;;;;;21.95;39.36;101592.24;110181;1265;20082;-38
2023/05/26 08:41:03;;;;;;;;;8.00;8.00;;;;;22.02;39.59;101593.02;110159;1257;19575;-40
2023/05/26 08:43:31;;;;;;;;;5.00;5.00;;;;;21.96;39.65;101589.45;110185;1250;21993;-39
2023/05/26 08:45:58;;;;;;;;;8.00;7.00;;;;;22.02;39.54;101594.77;110189;1250;20131;-39
2023/05/26 08:48:26;;;;;;;;;7.00;5.00;;;;;22.10;39.70;101599.74;110215;1265;19388;-40
2023/05/26 08:50:53;;;;;;;;;5.00;4.00;;;;;22.08;39.36;101591.55;110238;1265;21066;-43
2023/05/26 08:53:23;;;;;;;;;7.00;7.00;;;;;22.06;39.12;101595.64;110172;1265;21513;-40
2023/05/26 08:55:50;;;;;;;;;7.00;6.00;;;;;21.96;38.81;101591.77;110213;1265;20513;-40
2023/05/26 08:58:17;;;;;;;;;7.00;7.00;;;;;21.99;38.81;101588.79;110232;1265;19336;-39
2023/05/26 09:00:45;;;;;;;;;5.50;5.50;;;;;22.03;38.66;101596.47;110225;1265;21818;-38
2023/05/26 09:03:12;;;;;;;;;5.00;5.00;;;;;22.05;37.75;101592.95;110267;1251;23737;-38
2023/05/26 09:05:40;;;;;;;;;5.00;4.00;;;;;22.12;37.50;101594.49;110242;1265;22593;-40
2023/05/26 09:08:09;;;;;;;;;7.00;5.00;;;;;22.21;37.00;101588.27;110237;1249;22962;-40
2023/05/26 09:10:37;;;;;;;;;7.33;7.00;;;;;22.23;36.40;101587.46;110185;1251;23160;-39
2023/05/26 09:13:04;;;;;;;;;5.00;5.00;;;;;22.19;36.11;101590.11;110196;1250;23502;-40
2023/05/26 09:15:32;;;;;;;;;5.00;4.50;;;;;22.22;36.38;101593.64;110201;1265;20354;-40
2023/05/26 09:17:59;;;;;;;;;7.00;5.00;;;;;22.24;36.55;101598.29;110246;1265;19386;-40
2023/05/26 09:20:27;;;;;;;;;6.00;5.00;;;;;22.28;36.61;101602.08;110191;1265;20683;-40
2023/05/26 09:22:54;;;;;;;;;5.00;5.00;;;;;22.29;36.49;101604.13;110211;1251;21565;-39
2023/05/26 09:25:21;;;;;;;;;5.00;4.00;;;;;22.30;36.20;101601.26;110195;1257;19679;-38
2023/05/26 09:27:49;;;;;;;;;5.00;5.00;;;;;22.30;36.25;101603.67;110197;1265;19403;-39
2023/05/26 09:30:16;;;;;;;;;7.00;5.00;;;;;22.30;36.27;101604.73;110249;1265;23561;-45
2023/05/26 09:32:44;;;;;;;;;7.00;5.00;;;;;22.28;35.81;101608.70;110234;1265;19541;-39
2023/05/26 09:35:11;;;;;;;;;5.00;5.00;;;;;22.26;35.70;101608.61;110234;1265;19389;-38
2023/05/26 09:37:39;;;;;;;;;5.00;5.00;;;;;22.22;35.36;101601.42;110206;1251;22827;-39
2023/05/26 09:40:06;;;;;;;;;4.00;4.00;;;;;22.25;35.45;101603.30;110226;1249;23498;-40
2023/05/26 09:42:34;;;;;;;;;5.00;5.00;;;;;22.26;35.41;101604.08;110205;1260;20981;-39
2023/05/26 09:45:01;;;;;;;;;7.50;7.00;;;;;22.26;35.73;101597.14;110197;1265;21748;-39
2023/05/26 09:47:28;;;;;;;;;7.00;5.67;;;;;22.24;36.24;101592.09;110191;1250;25299;-39
2023/05/26 09:49:56;;;;;;;;;4.50;4.50;;;;;22.28;36.38;101589.65;110201;1265;21054;-39
2023/05/26 09:52:23;;;;;;;;;8.00;7.00;;;;;22.33;36.69;101592.54;110192;1265;20148;-39
2023/05/26 09:54:51;;;;;;;;;8.00;7.00;;;;;22.31;36.65;101599.88;110188;1265;19204;-40
2023/05/26 09:57:18;;;;;;;;;5.00;5.00;;;;;22.26;36.13;101597.31;110176;1251;20664;-40
2023/05/26 09:59:46;;;;;;;;;9.00;8.00;;;;;22.21;35.91;101594.48;110203;1265;21803;-40
2023/05/26 10:02:13;;;;;;;;;7.00;5.00;;;;;22.21;36.20;101596.77;110177;1251;20222;-41
2023/05/26 10:04:41;;;;;;;;;7.00;5.00;;;;;22.28;36.59;101595.17;110173;1265;21000;-40
2023/05/26 10:07:08;;;;;;;;;5.00;5.00;;;;;22.39;36.51;101594.66;110182;1250;21515;-40
2023/05/26 10:09:37;;;;;;;;;9.00;7.00;;;;;22.44;36.61;101591.34;110170;1257;19262;-40
2023/05/26 10:12:05;;;;;;;;;5.00;5.00;;;;;22.44;36.92;101589.56;110265;1250;20756;-40
2023/05/26 10:14:33;;;;;;;;;4.00;4.00;;;;;22.48;36.67;101590.81;110169;1265;23672;-40
2023/05/26 10:17:00;;;;;;;;;5.00;5.00;;;;;22.48;36.88;101585.45;110145;1251;19619;-41
2023/05/26 10:19:27;;;;;;;;;;;;;;;22.51;36.66;101579.54;110200;1266;20491;-41
2023/05/26 10:21:55;;;;;;;;;5.00;5.00;;;;;22.52;36.34;101583.94;110195;1266;21959;-41
2023/05/26 10:24:22;;;;;;;;;8.00;5.00;;;;;22.50;35.95;101583.81;110218;1265;19630;-41
2023/05/26 10:26:50;;;;;;;;;5.00;5.00;;;;;22.48;35.79;101580.36;110263;1251;22059;-40
2023/05/26 10:29:17;;;;;;;;;5.00;5.00;;;;;22.47;35.88;101579.80;110242;1265;20153;-40
2023/05/26 10:31:46;;;;;;;;;8.00;7.00;;;;;22.47;36.13;101586.32;110201;1251;19763;-40
2023/05/26 10:34:14;;;;;;;;;5.00;5.00;;;;;22.44;36.07;101587.86;110184;1265;23446;-40
2023/05/26 10:36:42;;;;;;;;;7.00;7.00;;;;;22.47;36.16;101586.35;110227;1250;22958;-39
2023/05/26 10:39:09;;;;;;;;;7.00;7.00;;;;;22.49;36.33;101588.14;110175;1257;19367;-40
2023/05/26 10:41:37;;;;;;;;;4.50;4.50;;;;;22.42;36.14;101591.23;110181;1265;22512;-40
2023/05/26 10:44:05;;;;;;;;;5.00;5.00;;;;;22.37;36.17;101597.23;110111;1257;20010;-42
2023/05/26 10:46:32;;;;;;;;;5.00;5.00;;;;;22.42;36.42;101597.20;110163;1265;19776;-40
2023/05/26 10:48:59;;;;;;;;;5.00;5.00;;;;;22.48;36.39;101593.64;110154;1251;19324;-40
2023/05/26 10:51:27;;;;;;;;;7.00;5.00;;;;;22.49;36.64;101595.96;110125;1265;20356;-39
2023/05/26 10:53:56;;;;;;;;;4.33;4.33;;;;;22.50;36.96;101586.58;110134;1251;20027;-43
2023/05/26 10:56:25;;;;;;;;;8.00;7.00;;;;;22.51;37.23;101591.48;110215;1265;21594;-40
2023/05/26 10:58:52;;;;;;;;;8.00;8.00;;;;;22.53;37.10;101594.06;110204;1265;23003;-40
2023/05/26 11:01:22;;;;;;;;;5.00;5.00;;;;;22.50;36.30;101592.04;110190;1265;19560;-40
2023/05/26 11:03:50;;;;;;;;;7.50;6.00;;;;;22.49;36.10;101591.70;110229;1265;23519;-40
2023/05/26 11:06:17;;;;;;;;;5.00;4.50;;;;;22.51;35.92;101597.73;110138;1265;20280;-39
2023/05/26 11:08:44;;;;;;;;;8.00;7.00;;;;;22.51;35.78;101594.80;110148;1249;19270;-42
2023/05/26 11:11:12;;;;;;;;;7.00;5.00;;;;;22.51;35.85;101590.64;110189;1265;19543;-40
2023/05/26 11:13:40;;;;;;;;;8.00;7.00;;;;;22.46;35.33;101594.59;110278;1251;20332;-40
2023/05/26 11:16:07;;;;;;;;;7.00;7.00;;;;;22.42;35.01;101598.88;110312;1265;19327;-39